sensor_id;sensor_type;location;lat;lon;timestamp;P1;durP1;ratioP1;P2;durP2;ratioP2
11588;SDS011;5850;51.360;12.362;2022-12-05T00:02:03;102.03;;;47.33;;
11588;SDS011;5850;51.360;12.362;2022-12-05T00:04:32;101.07;;;44.83;;
11588;SDS011;5850;51.360;12.362;2022-12-05T00:07:01;101.87;;;46.07;;
11588;SDS011;5850;51.360;12.362;2022-12-05T00:09:29;105.23;;;44.23;;
11588;SDS011;5850;51.360;12.362;2022-12-05T00:11:58;97.67;;;45.60;;
11588;SDS011;5850;51.360;12.362;2022-12-05T00:14:26;93.13;;;44.13;;
11588;SDS011;5850;51.360;12.362;2022-12-05T00:16:55;93.07;;;42.77;;
11588;SDS011;5850;51.360;12.362;2022-12-05T00:19:23;91.07;;;44.63;;
11588;SDS011;5850;51.360;12.362;2022-12-05T00:21:52;90.67;;;42.00;;
11588;SDS011;5850;51.360;12.362;2022-12-05T00:24:20;90.87;;;41.07;;
11588;SDS011;5850;51.360;12.362;2022-12-05T00:26:48;93.33;;;42.57;;
11588;SDS011;5850;51.360;12.362;2022-12-05T00:29:17;102.13;;;44.33;;
11588;SDS011;5850;51.360;12.362;2022-12-05T00:31:45;94.77;;;41.73;;
11588;SDS011;5850;51.360;12.362;2022-12-05T00:34:14;95.60;;;43.23;;
11588;SDS011;5850;51.360;12.362;2022-12-05T00:36:43;94.70;;;43.97;;
11588;SDS011;5850;51.360;12.362;2022-12-05T00:39:11;93.73;;;43.73;;
11588;SDS011;5850;51.360;12.362;2022-12-05T00:41:41;107.40;;;46.87;;
11588;SDS011;5850;51.360;12.362;2022-12-05T00:44:10;100.07;;;43.97;;
11588;SDS011;5850;51.360;12.362;2022-12-05T00:46:39;100.77;;;43.53;;
11588;SDS011;5850;51.360;12.362;2022-12-05T00:49:09;104.00;;;46.50;;
11588;SDS011;5850;51.360;12.362;2022-12-05T00:51:39;98.97;;;44.90;;
11588;SDS011;5850;51.360;12.362;2022-12-05T00:54:11;100.60;;;44.83;;
11588;SDS011;5850;51.360;12.362;2022-12-05T00:56:42;106.93;;;45.47;;
11588;SDS011;5850;51.360;12.362;2022-12-05T00:59:13;107.87;;;47.33;;
11588;SDS011;5850;51.360;12.362;2022-12-05T01:01:45;110.20;;;44.73;;
11588;SDS011;5850;51.360;12.362;2022-12-05T01:04:16;109.83;;;46.63;;
11588;SDS011;5850;51.360;12.362;2022-12-05T01:06:47;112.67;;;47.27;;
11588;SDS011;5850;51.360;12.362;2022-12-05T01:09:18;111.67;;;45.90;;
11588;SDS011;5850;51.360;12.362;2022-12-05T01:11:47;105.47;;;46.17;;
11588;SDS011;5850;51.360;12.362;2022-12-05T01:14:16;102.57;;;46.73;;
11588;SDS011;5850;51.360;12.362;2022-12-05T01:16:48;100.53;;;44.70;;
11588;SDS011;5850;51.360;12.362;2022-12-05T01:19:19;92.17;;;43.23;;
11588;SDS011;5850;51.360;12.362;2022-12-05T01:21:56;103.63;;;44.77;;
11588;SDS011;5850;51.360;12.362;2022-12-05T01:24:26;104.03;;;45.33;;
11588;SDS011;5850;51.360;12.362;2022-12-05T01:26:57;106.97;;;45.80;;
11588;SDS011;5850;51.360;12.362;2022-12-05T01:29:25;106.00;;;45.17;;
11588;SDS011;5850;51.360;12.362;2022-12-05T01:31:54;107.87;;;43.90;;
11588;SDS011;5850;51.360;12.362;2022-12-05T01:34:23;105.47;;;46.40;;
11588;SDS011;5850;51.360;12.362;2022-12-05T01:36:52;101.17;;;43.37;;
11588;SDS011;5850;51.360;12.362;2022-12-05T01:39:20;107.97;;;44.17;;
11588;SDS011;5850;51.360;12.362;2022-12-05T01:41:49;100.80;;;44.40;;
11588;SDS011;5850;51.360;12.362;2022-12-05T01:46:50;99.27;;;43.10;;
11588;SDS011;5850;51.360;12.362;2022-12-05T01:49:24;93.40;;;43.10;;
11588;SDS011;5850;51.360;12.362;2022-12-05T01:52:08;95.27;;;43.27;;
11588;SDS011;5850;51.360;12.362;2022-12-05T01:54:42;93.43;;;42.97;;
11588;SDS011;5850;51.360;12.362;2022-12-05T01:57:12;90.40;;;42.93;;
11588;SDS011;5850;51.360;12.362;2022-12-05T01:59:46;92.47;;;42.20;;
11588;SDS011;5850;51.360;12.362;2022-12-05T02:02:21;89.87;;;42.17;;
11588;SDS011;5850;51.360;12.362;2022-12-05T02:07:37;82.57;;;42.60;;
11588;SDS011;5850;51.360;12.362;2022-12-05T02:10:07;83.30;;;41.33;;
11588;SDS011;5850;51.360;12.362;2022-12-05T02:12:36;81.73;;;40.70;;
11588;SDS011;5850;51.360;12.362;2022-12-05T02:18:11;84.20;;;40.80;;
11588;SDS011;5850;51.360;12.362;2022-12-05T02:32:46;99.23;;;44.37;;
11588;SDS011;5850;51.360;12.362;2022-12-05T02:41:13;85.50;;;41.97;;
11588;SDS011;5850;51.360;12.362;2022-12-05T02:44:30;84.43;;;42.70;;
11588;SDS011;5850;51.360;12.362;2022-12-05T02:47:06;85.90;;;41.87;;
11588;SDS011;5850;51.360;12.362;2022-12-05T02:49:37;74.53;;;39.23;;
11588;SDS011;5850;51.360;12.362;2022-12-05T02:52:09;83.33;;;41.40;;
11588;SDS011;5850;51.360;12.362;2022-12-05T02:54:41;85.40;;;41.40;;
11588;SDS011;5850;51.360;12.362;2022-12-05T02:57:13;76.97;;;38.33;;
11588;SDS011;5850;51.360;12.362;2022-12-05T02:59:43;73.23;;;37.83;;
11588;SDS011;5850;51.360;12.362;2022-12-05T03:02:21;72.83;;;37.93;;
11588;SDS011;5850;51.360;12.362;2022-12-05T03:05:08;75.00;;;37.13;;
11588;SDS011;5850;51.360;12.362;2022-12-05T03:07:43;74.70;;;37.23;;
11588;SDS011;5850;51.360;12.362;2022-12-05T03:10:14;76.50;;;37.53;;
11588;SDS011;5850;51.360;12.362;2022-12-05T03:12:49;72.43;;;38.03;;
11588;SDS011;5850;51.360;12.362;2022-12-05T03:15:45;72.67;;;36.70;;
11588;SDS011;5850;51.360;12.362;2022-12-05T03:18:17;63.83;;;35.63;;
11588;SDS011;5850;51.360;12.362;2022-12-05T03:20:55;67.13;;;36.67;;
11588;SDS011;5850;51.360;12.362;2022-12-05T03:23:33;75.10;;;38.57;;
11588;SDS011;5850;51.360;12.362;2022-12-05T03:26:25;67.73;;;34.60;;
11588;SDS011;5850;51.360;12.362;2022-12-05T03:34:40;60.87;;;33.90;;
11588;SDS011;5850;51.360;12.362;2022-12-05T03:37:28;58.17;;;33.37;;
11588;SDS011;5850;51.360;12.362;2022-12-05T03:43:19;63.43;;;34.63;;
11588;SDS011;5850;51.360;12.362;2022-12-05T03:48:55;60.97;;;33.50;;
11588;SDS011;5850;51.360;12.362;2022-12-05T03:51:55;58.03;;;32.73;;
11588;SDS011;5850;51.360;12.362;2022-12-05T03:55:21;56.10;;;31.87;;
11588;SDS011;5850;51.360;12.362;2022-12-05T03:58:03;61.77;;;33.50;;
11588;SDS011;5850;51.360;12.362;2022-12-05T04:00:37;64.40;;;34.33;;
11588;SDS011;5850;51.360;12.362;2022-12-05T04:03:11;63.70;;;34.60;;
11588;SDS011;5850;51.360;12.362;2022-12-05T04:05:53;62.10;;;33.67;;
11588;SDS011;5850;51.360;12.362;2022-12-05T04:08:27;57.97;;;33.97;;
11588;SDS011;5850;51.360;12.362;2022-12-05T04:11:00;57.47;;;32.20;;
11588;SDS011;5850;51.360;12.362;2022-12-05T04:13:36;52.40;;;31.87;;
11588;SDS011;5850;51.360;12.362;2022-12-05T04:16:10;56.53;;;32.37;;
11588;SDS011;5850;51.360;12.362;2022-12-05T04:21:49;54.73;;;30.53;;
11588;SDS011;5850;51.360;12.362;2022-12-05T04:24:29;55.50;;;31.57;;
11588;SDS011;5850;51.360;12.362;2022-12-05T04:27:26;58.60;;;31.87;;
11588;SDS011;5850;51.360;12.362;2022-12-05T04:30:21;56.37;;;32.03;;
11588;SDS011;5850;51.360;12.362;2022-12-05T04:33:13;61.23;;;33.70;;
11588;SDS011;5850;51.360;12.362;2022-12-05T04:36:09;55.30;;;32.20;;
11588;SDS011;5850;51.360;12.362;2022-12-05T04:39:02;58.00;;;33.43;;
11588;SDS011;5850;51.360;12.362;2022-12-05T04:41:44;59.60;;;33.13;;
11588;SDS011;5850;51.360;12.362;2022-12-05T04:44:32;56.60;;;32.17;;
11588;SDS011;5850;51.360;12.362;2022-12-05T04:47:12;54.70;;;31.57;;
11588;SDS011;5850;51.360;12.362;2022-12-05T04:49:43;58.27;;;33.87;;
11588;SDS011;5850;51.360;12.362;2022-12-05T04:52:18;56.80;;;32.03;;
11588;SDS011;5850;51.360;12.362;2022-12-05T04:54:55;57.80;;;33.70;;
11588;SDS011;5850;51.360;12.362;2022-12-05T04:57:48;56.93;;;32.80;;
11588;SDS011;5850;51.360;12.362;2022-12-05T05:00:30;57.23;;;32.13;;
11588;SDS011;5850;51.360;12.362;2022-12-05T05:03:05;57.57;;;32.60;;
11588;SDS011;5850;51.360;12.362;2022-12-05T05:05:48;58.97;;;32.67;;
11588;SDS011;5850;51.360;12.362;2022-12-05T05:08:22;59.30;;;31.33;;
11588;SDS011;5850;51.360;12.362;2022-12-05T05:10:59;52.60;;;31.23;;
11588;SDS011;5850;51.360;12.362;2022-12-05T05:13:38;59.53;;;31.93;;
11588;SDS011;5850;51.360;12.362;2022-12-05T05:16:06;56.17;;;32.07;;
11588;SDS011;5850;51.360;12.362;2022-12-05T05:18:39;62.23;;;36.90;;
11588;SDS011;5850;51.360;12.362;2022-12-05T05:21:12;69.10;;;37.87;;
11588;SDS011;5850;51.360;12.362;2022-12-05T05:23:51;55.20;;;32.00;;
11588;SDS011;5850;51.360;12.362;2022-12-05T05:26:20;55.60;;;32.17;;
11588;SDS011;5850;51.360;12.362;2022-12-05T05:28:50;53.00;;;31.17;;
11588;SDS011;5850;51.360;12.362;2022-12-05T05:31:19;54.03;;;30.93;;
11588;SDS011;5850;51.360;12.362;2022-12-05T05:33:51;54.53;;;29.60;;
11588;SDS011;5850;51.360;12.362;2022-12-05T05:36:23;51.87;;;29.83;;
11588;SDS011;5850;51.360;12.362;2022-12-05T05:38:57;54.03;;;30.30;;
11588;SDS011;5850;51.360;12.362;2022-12-05T05:41:28;48.87;;;28.93;;
11588;SDS011;5850;51.360;12.362;2022-12-05T05:44:03;55.47;;;32.57;;
11588;SDS011;5850;51.360;12.362;2022-12-05T05:46:32;55.70;;;30.60;;
11588;SDS011;5850;51.360;12.362;2022-12-05T05:49:02;53.90;;;30.60;;
11588;SDS011;5850;51.360;12.362;2022-12-05T05:51:31;54.63;;;31.83;;
11588;SDS011;5850;51.360;12.362;2022-12-05T05:54:00;52.90;;;31.20;;
11588;SDS011;5850;51.360;12.362;2022-12-05T05:56:28;57.80;;;32.00;;
11588;SDS011;5850;51.360;12.362;2022-12-05T05:58:58;57.73;;;30.30;;
11588;SDS011;5850;51.360;12.362;2022-12-05T06:01:29;54.20;;;29.37;;
11588;SDS011;5850;51.360;12.362;2022-12-05T06:03:57;48.77;;;29.17;;
11588;SDS011;5850;51.360;12.362;2022-12-05T06:06:26;51.90;;;29.50;;
11588;SDS011;5850;51.360;12.362;2022-12-05T06:08:54;55.03;;;30.90;;
11588;SDS011;5850;51.360;12.362;2022-12-05T06:11:24;54.57;;;30.63;;
11588;SDS011;5850;51.360;12.362;2022-12-05T06:13:54;57.83;;;31.40;;
11588;SDS011;5850;51.360;12.362;2022-12-05T06:16:26;57.93;;;32.63;;
11588;SDS011;5850;51.360;12.362;2022-12-05T06:18:56;58.07;;;31.57;;
11588;SDS011;5850;51.360;12.362;2022-12-05T06:21:25;55.03;;;31.87;;
11588;SDS011;5850;51.360;12.362;2022-12-05T06:23:53;58.60;;;32.23;;
11588;SDS011;5850;51.360;12.362;2022-12-05T06:26:22;57.97;;;32.13;;
11588;SDS011;5850;51.360;12.362;2022-12-05T06:28:50;50.40;;;29.47;;
11588;SDS011;5850;51.360;12.362;2022-12-05T06:31:21;53.20;;;29.50;;
11588;SDS011;5850;51.360;12.362;2022-12-05T06:33:52;51.53;;;30.60;;
11588;SDS011;5850;51.360;12.362;2022-12-05T06:36:21;58.53;;;31.23;;
11588;SDS011;5850;51.360;12.362;2022-12-05T06:38:50;53.77;;;30.53;;
11588;SDS011;5850;51.360;12.362;2022-12-05T06:41:19;57.57;;;31.33;;
11588;SDS011;5850;51.360;12.362;2022-12-05T06:43:53;59.20;;;32.00;;
11588;SDS011;5850;51.360;12.362;2022-12-05T06:46:27;57.40;;;32.30;;
11588;SDS011;5850;51.360;12.362;2022-12-05T06:48:56;49.97;;;29.83;;
11588;SDS011;5850;51.360;12.362;2022-12-05T06:51:25;55.93;;;31.13;;
11588;SDS011;5850;51.360;12.362;2022-12-05T06:53:54;51.90;;;30.63;;
11588;SDS011;5850;51.360;12.362;2022-12-05T06:56:22;52.73;;;30.23;;
11588;SDS011;5850;51.360;12.362;2022-12-05T06:58:51;52.17;;;29.53;;
11588;SDS011;5850;51.360;12.362;2022-12-05T07:01:21;51.73;;;30.10;;
11588;SDS011;5850;51.360;12.362;2022-12-05T07:04:09;48.87;;;28.33;;
11588;SDS011;5850;51.360;12.362;2022-12-05T07:06:39;52.37;;;31.00;;
11588;SDS011;5850;51.360;12.362;2022-12-05T07:09:16;50.93;;;31.27;;
11588;SDS011;5850;51.360;12.362;2022-12-05T07:11:47;53.03;;;30.83;;
11588;SDS011;5850;51.360;12.362;2022-12-05T07:14:16;46.10;;;28.13;;
11588;SDS011;5850;51.360;12.362;2022-12-05T07:17:05;55.47;;;30.50;;
11588;SDS011;5850;51.360;12.362;2022-12-05T07:19:34;55.57;;;31.40;;
11588;SDS011;5850;51.360;12.362;2022-12-05T07:22:02;52.10;;;30.00;;
11588;SDS011;5850;51.360;12.362;2022-12-05T07:24:38;50.83;;;29.87;;
11588;SDS011;5850;51.360;12.362;2022-12-05T07:27:07;51.80;;;31.43;;
11588;SDS011;5850;51.360;12.362;2022-12-05T07:29:35;55.33;;;32.63;;
11588;SDS011;5850;51.360;12.362;2022-12-05T07:32:04;60.17;;;33.17;;
11588;SDS011;5850;51.360;12.362;2022-12-05T07:34:33;57.90;;;31.00;;
11588;SDS011;5850;51.360;12.362;2022-12-05T07:37:04;58.67;;;32.93;;
11588;SDS011;5850;51.360;12.362;2022-12-05T07:39:32;56.23;;;32.63;;
11588;SDS011;5850;51.360;12.362;2022-12-05T07:42:00;55.73;;;30.23;;
11588;SDS011;5850;51.360;12.362;2022-12-05T07:44:29;55.57;;;30.03;;
11588;SDS011;5850;51.360;12.362;2022-12-05T07:46:57;50.80;;;30.03;;
11588;SDS011;5850;51.360;12.362;2022-12-05T07:49:26;50.23;;;29.50;;
11588;SDS011;5850;51.360;12.362;2022-12-05T07:51:55;55.70;;;30.70;;
11588;SDS011;5850;51.360;12.362;2022-12-05T07:54:24;56.87;;;30.67;;
11588;SDS011;5850;51.360;12.362;2022-12-05T07:56:52;51.83;;;30.33;;
11588;SDS011;5850;51.360;12.362;2022-12-05T07:59:20;58.80;;;31.90;;
11588;SDS011;5850;51.360;12.362;2022-12-05T08:01:49;54.27;;;31.83;;
11588;SDS011;5850;51.360;12.362;2022-12-05T08:04:18;54.03;;;30.23;;
11588;SDS011;5850;51.360;12.362;2022-12-05T08:06:46;58.60;;;30.43;;
11588;SDS011;5850;51.360;12.362;2022-12-05T08:09:15;56.17;;;30.93;;
11588;SDS011;5850;51.360;12.362;2022-12-05T08:11:43;54.30;;;30.10;;
11588;SDS011;5850;51.360;12.362;2022-12-05T08:14:17;55.50;;;30.03;;
11588;SDS011;5850;51.360;12.362;2022-12-05T08:16:46;61.13;;;31.93;;
11588;SDS011;5850;51.360;12.362;2022-12-05T08:19:15;49.17;;;28.00;;
11588;SDS011;5850;51.360;12.362;2022-12-05T08:21:44;49.57;;;28.37;;
11588;SDS011;5850;51.360;12.362;2022-12-05T08:24:12;44.63;;;26.77;;
11588;SDS011;5850;51.360;12.362;2022-12-05T08:26:41;43.00;;;25.53;;
11588;SDS011;5850;51.360;12.362;2022-12-05T08:29:13;45.93;;;26.73;;
11588;SDS011;5850;51.360;12.362;2022-12-05T08:31:43;41.10;;;26.27;;
11588;SDS011;5850;51.360;12.362;2022-12-05T08:34:14;43.40;;;26.63;;
11588;SDS011;5850;51.360;12.362;2022-12-05T08:36:44;46.80;;;25.50;;
11588;SDS011;5850;51.360;12.362;2022-12-05T08:39:13;46.77;;;27.23;;
11588;SDS011;5850;51.360;12.362;2022-12-05T08:41:45;42.07;;;23.33;;
11588;SDS011;5850;51.360;12.362;2022-12-05T08:44:14;44.23;;;24.90;;
11588;SDS011;5850;51.360;12.362;2022-12-05T08:46:45;40.87;;;24.77;;
11588;SDS011;5850;51.360;12.362;2022-12-05T08:49:15;42.87;;;25.40;;
11588;SDS011;5850;51.360;12.362;2022-12-05T08:51:44;43.37;;;25.40;;
11588;SDS011;5850;51.360;12.362;2022-12-05T08:54:13;46.23;;;24.63;;
11588;SDS011;5850;51.360;12.362;2022-12-05T08:56:41;38.53;;;23.73;;
11588;SDS011;5850;51.360;12.362;2022-12-05T08:59:10;36.60;;;22.87;;
11588;SDS011;5850;51.360;12.362;2022-12-05T09:01:42;37.63;;;23.70;;
11588;SDS011;5850;51.360;12.362;2022-12-05T09:04:10;37.47;;;22.97;;
11588;SDS011;5850;51.360;12.362;2022-12-05T09:06:39;40.20;;;23.27;;
11588;SDS011;5850;51.360;12.362;2022-12-05T09:09:09;39.17;;;23.60;;
11588;SDS011;5850;51.360;12.362;2022-12-05T09:11:40;34.80;;;21.37;;
11588;SDS011;5850;51.360;12.362;2022-12-05T09:14:12;35.83;;;21.73;;
11588;SDS011;5850;51.360;12.362;2022-12-05T09:16:42;32.87;;;21.60;;
11588;SDS011;5850;51.360;12.362;2022-12-05T09:19:13;34.73;;;19.63;;
11588;SDS011;5850;51.360;12.362;2022-12-05T09:21:48;30.53;;;20.57;;
11588;SDS011;5850;51.360;12.362;2022-12-05T09:24:17;37.43;;;21.90;;
11588;SDS011;5850;51.360;12.362;2022-12-05T09:26:45;34.50;;;21.40;;
11588;SDS011;5850;51.360;12.362;2022-12-05T09:29:14;30.17;;;18.70;;
11588;SDS011;5850;51.360;12.362;2022-12-05T09:31:44;30.73;;;19.83;;
11588;SDS011;5850;51.360;12.362;2022-12-05T09:34:15;32.17;;;19.83;;
11588;SDS011;5850;51.360;12.362;2022-12-05T09:36:45;32.30;;;19.07;;
11588;SDS011;5850;51.360;12.362;2022-12-05T09:39:35;27.20;;;17.57;;
11588;SDS011;5850;51.360;12.362;2022-12-05T09:47:47;26.43;;;17.80;;
11588;SDS011;5850;51.360;12.362;2022-12-05T09:50:31;24.80;;;16.40;;
11588;SDS011;5850;51.360;12.362;2022-12-05T09:53:10;25.37;;;16.93;;
11588;SDS011;5850;51.360;12.362;2022-12-05T10:15:52;24.40;;;16.77;;
11588;SDS011;5850;51.360;12.362;2022-12-05T10:18:40;24.70;;;16.10;;
11588;SDS011;5850;51.360;12.362;2022-12-05T10:21:23;25.23;;;15.87;;
11588;SDS011;5850;51.360;12.362;2022-12-05T10:24:38;21.73;;;15.60;;
11588;SDS011;5850;51.360;12.362;2022-12-05T10:27:18;25.90;;;16.90;;
11588;SDS011;5850;51.360;12.362;2022-12-05T10:35:17;22.60;;;14.87;;
11588;SDS011;5850;51.360;12.362;2022-12-05T10:37:55;22.07;;;14.67;;
11588;SDS011;5850;51.360;12.362;2022-12-05T10:40:32;19.03;;;14.77;;
11588;SDS011;5850;51.360;12.362;2022-12-05T10:43:04;22.33;;;15.33;;
11588;SDS011;5850;51.360;12.362;2022-12-05T10:45:35;22.07;;;15.13;;
11588;SDS011;5850;51.360;12.362;2022-12-05T10:48:14;22.53;;;14.67;;
11588;SDS011;5850;51.360;12.362;2022-12-05T10:50:46;21.60;;;15.00;;
11588;SDS011;5850;51.360;12.362;2022-12-05T10:53:21;21.33;;;14.73;;
11588;SDS011;5850;51.360;12.362;2022-12-05T10:55:52;22.77;;;15.17;;
11588;SDS011;5850;51.360;12.362;2022-12-05T10:58:52;21.07;;;14.00;;
11588;SDS011;5850;51.360;12.362;2022-12-05T11:01:23;23.47;;;15.27;;
11588;SDS011;5850;51.360;12.362;2022-12-05T11:04:00;24.30;;;16.47;;
11588;SDS011;5850;51.360;12.362;2022-12-05T11:06:39;20.83;;;14.93;;
11588;SDS011;5850;51.360;12.362;2022-12-05T11:09:36;25.60;;;15.87;;
11588;SDS011;5850;51.360;12.362;2022-12-05T11:12:12;21.63;;;15.13;;
11588;SDS011;5850;51.360;12.362;2022-12-05T11:14:53;22.33;;;14.53;;
11588;SDS011;5850;51.360;12.362;2022-12-05T11:17:29;22.47;;;15.43;;
11588;SDS011;5850;51.360;12.362;2022-12-05T11:20:02;25.90;;;15.37;;
11588;SDS011;5850;51.360;12.362;2022-12-05T11:28:21;21.93;;;15.43;;
11588;SDS011;5850;51.360;12.362;2022-12-05T11:33:22;23.10;;;15.43;;
11588;SDS011;5850;51.360;12.362;2022-12-05T11:35:55;24.07;;;15.60;;
11588;SDS011;5850;51.360;12.362;2022-12-05T11:38:45;23.70;;;15.27;;
11588;SDS011;5850;51.360;12.362;2022-12-05T11:55:44;23.00;;;15.00;;
11588;SDS011;5850;51.360;12.362;2022-12-05T11:58:27;21.77;;;15.13;;
11588;SDS011;5850;51.360;12.362;2022-12-05T12:40:16;19.27;;;13.93;;
11588;SDS011;5850;51.360;12.362;2022-12-05T12:51:51;18.43;;;14.33;;
11588;SDS011;5850;51.360;12.362;2022-12-05T13:06:11;21.40;;;15.10;;
11588;SDS011;5850;51.360;12.362;2022-12-05T13:08:49;20.20;;;13.60;;
11588;SDS011;5850;51.360;12.362;2022-12-05T13:11:24;19.73;;;13.63;;
11588;SDS011;5850;51.360;12.362;2022-12-05T13:13:57;20.57;;;14.30;;
11588;SDS011;5850;51.360;12.362;2022-12-05T13:16:32;17.93;;;13.50;;
11588;SDS011;5850;51.360;12.362;2022-12-05T13:19:54;22.43;;;14.80;;
11588;SDS011;5850;51.360;12.362;2022-12-05T13:22:17;18.33;;;14.30;;
11588;SDS011;5850;51.360;12.362;2022-12-05T13:24:49;19.00;;;14.30;;
11588;SDS011;5850;51.360;12.362;2022-12-05T13:27:20;18.70;;;13.70;;
11588;SDS011;5850;51.360;12.362;2022-12-05T13:29:54;18.07;;;13.27;;
11588;SDS011;5850;51.360;12.362;2022-12-05T13:32:36;17.90;;;14.30;;
11588;SDS011;5850;51.360;12.362;2022-12-05T13:35:20;17.67;;;13.77;;
11588;SDS011;5850;51.360;12.362;2022-12-05T13:38:22;18.00;;;13.73;;
11588;SDS011;5850;51.360;12.362;2022-12-05T13:41:15;18.47;;;14.03;;
11588;SDS011;5850;51.360;12.362;2022-12-05T13:44:01;22.13;;;15.27;;
11588;SDS011;5850;51.360;12.362;2022-12-05T13:46:38;19.83;;;14.23;;
11588;SDS011;5850;51.360;12.362;2022-12-05T13:49:13;19.80;;;14.33;;
11588;SDS011;5850;51.360;12.362;2022-12-05T13:52:16;21.23;;;15.43;;
11588;SDS011;5850;51.360;12.362;2022-12-05T13:55:38;18.90;;;14.60;;
11588;SDS011;5850;51.360;12.362;2022-12-05T14:07:54;19.73;;;14.17;;
11588;SDS011;5850;51.360;12.362;2022-12-05T14:12:58;20.63;;;14.23;;
11588;SDS011;5850;51.360;12.362;2022-12-05T14:15:47;18.93;;;14.47;;
11588;SDS011;5850;51.360;12.362;2022-12-05T14:18:20;18.23;;;13.90;;
11588;SDS011;5850;51.360;12.362;2022-12-05T14:32:37;21.20;;;15.03;;
11588;SDS011;5850;51.360;12.362;2022-12-05T14:38:26;19.40;;;14.33;;
11588;SDS011;5850;51.360;12.362;2022-12-05T14:41:10;20.00;;;15.07;;
11588;SDS011;5850;51.360;12.362;2022-12-05T14:43:59;20.03;;;14.27;;
11588;SDS011;5850;51.360;12.362;2022-12-05T14:46:34;20.63;;;14.80;;
11588;SDS011;5850;51.360;12.362;2022-12-05T14:52:20;16.90;;;14.03;;
11588;SDS011;5850;51.360;12.362;2022-12-05T14:54:52;20.93;;;15.00;;
11588;SDS011;5850;51.360;12.362;2022-12-05T15:00:04;18.87;;;14.10;;
11588;SDS011;5850;51.360;12.362;2022-12-05T15:02:37;22.97;;;17.87;;
11588;SDS011;5850;51.360;12.362;2022-12-05T15:07:56;20.60;;;15.20;;
11588;SDS011;5850;51.360;12.362;2022-12-05T15:10:34;17.60;;;13.83;;
11588;SDS011;5850;51.360;12.362;2022-12-05T15:13:21;21.37;;;14.70;;
11588;SDS011;5850;51.360;12.362;2022-12-05T15:15:55;18.90;;;14.23;;
11588;SDS011;5850;51.360;12.362;2022-12-05T15:18:50;22.03;;;15.77;;
11588;SDS011;5850;51.360;12.362;2022-12-05T15:21:31;19.87;;;14.67;;
11588;SDS011;5850;51.360;12.362;2022-12-05T15:24:12;18.73;;;14.50;;
11588;SDS011;5850;51.360;12.362;2022-12-05T15:26:51;21.63;;;15.00;;
11588;SDS011;5850;51.360;12.362;2022-12-05T15:29:25;20.97;;;15.13;;
11588;SDS011;5850;51.360;12.362;2022-12-05T15:32:02;23.17;;;16.13;;
11588;SDS011;5850;51.360;12.362;2022-12-05T15:34:38;18.03;;;14.47;;
11588;SDS011;5850;51.360;12.362;2022-12-05T15:40:02;20.93;;;16.07;;
11588;SDS011;5850;51.360;12.362;2022-12-05T15:47:44;23.53;;;17.63;;
11588;SDS011;5850;51.360;12.362;2022-12-05T15:50:15;22.30;;;17.10;;
11588;SDS011;5850;51.360;12.362;2022-12-05T15:52:49;21.97;;;15.43;;
11588;SDS011;5850;51.360;12.362;2022-12-05T15:55:35;21.47;;;16.50;;
11588;SDS011;5850;51.360;12.362;2022-12-05T16:03:39;21.13;;;15.33;;
11588;SDS011;5850;51.360;12.362;2022-12-05T16:08:52;20.40;;;15.77;;
11588;SDS011;5850;51.360;12.362;2022-12-05T16:11:22;22.23;;;16.37;;
11588;SDS011;5850;51.360;12.362;2022-12-05T16:13:51;21.60;;;16.47;;
11588;SDS011;5850;51.360;12.362;2022-12-05T16:16:26;21.90;;;16.03;;
11588;SDS011;5850;51.360;12.362;2022-12-05T16:19:03;19.77;;;15.37;;
11588;SDS011;5850;51.360;12.362;2022-12-05T16:21:41;19.97;;;15.53;;
11588;SDS011;5850;51.360;12.362;2022-12-05T16:24:19;22.00;;;15.30;;
11588;SDS011;5850;51.360;12.362;2022-12-05T16:29:44;21.63;;;15.50;;
11588;SDS011;5850;51.360;12.362;2022-12-05T16:32:16;23.73;;;15.87;;
11588;SDS011;5850;51.360;12.362;2022-12-05T16:34:51;20.07;;;15.80;;
11588;SDS011;5850;51.360;12.362;2022-12-05T16:37:23;20.87;;;14.87;;
11588;SDS011;5850;51.360;12.362;2022-12-05T16:39:54;23.20;;;16.30;;
11588;SDS011;5850;51.360;12.362;2022-12-05T16:42:24;22.87;;;15.70;;
11588;SDS011;5850;51.360;12.362;2022-12-05T16:44:58;22.40;;;16.03;;
11588;SDS011;5850;51.360;12.362;2022-12-05T16:55:37;22.37;;;15.83;;
11588;SDS011;5850;51.360;12.362;2022-12-05T16:58:18;24.83;;;16.87;;
11588;SDS011;5850;51.360;12.362;2022-12-05T17:00:50;19.50;;;14.93;;
11588;SDS011;5850;51.360;12.362;2022-12-05T17:03:18;22.87;;;16.40;;
11588;SDS011;5850;51.360;12.362;2022-12-05T17:06:02;23.30;;;16.90;;
11588;SDS011;5850;51.360;12.362;2022-12-05T17:08:31;21.60;;;16.90;;
11588;SDS011;5850;51.360;12.362;2022-12-05T17:11:00;26.27;;;18.70;;
11588;SDS011;5850;51.360;12.362;2022-12-05T17:13:29;27.63;;;17.73;;
11588;SDS011;5850;51.360;12.362;2022-12-05T17:16:05;28.23;;;20.40;;
11588;SDS011;5850;51.360;12.362;2022-12-05T17:18:35;23.57;;;17.73;;
11588;SDS011;5850;51.360;12.362;2022-12-05T17:21:03;24.83;;;17.20;;
11588;SDS011;5850;51.360;12.362;2022-12-05T17:23:34;20.43;;;15.17;;
11588;SDS011;5850;51.360;12.362;2022-12-05T17:26:13;20.57;;;16.20;;
11588;SDS011;5850;51.360;12.362;2022-12-05T17:28:44;25.60;;;16.40;;
11588;SDS011;5850;51.360;12.362;2022-12-05T17:31:25;24.00;;;16.57;;
11588;SDS011;5850;51.360;12.362;2022-12-05T17:33:54;23.37;;;17.47;;
11588;SDS011;5850;51.360;12.362;2022-12-05T17:36:22;22.23;;;16.40;;
11588;SDS011;5850;51.360;12.362;2022-12-05T17:38:51;20.13;;;15.67;;
11588;SDS011;5850;51.360;12.362;2022-12-05T17:41:22;23.63;;;17.17;;
11588;SDS011;5850;51.360;12.362;2022-12-05T17:43:51;24.00;;;17.03;;
11588;SDS011;5850;51.360;12.362;2022-12-05T17:46:21;23.73;;;16.33;;
11588;SDS011;5850;51.360;12.362;2022-12-05T17:48:50;21.40;;;15.10;;
11588;SDS011;5850;51.360;12.362;2022-12-05T17:51:25;22.20;;;16.00;;
11588;SDS011;5850;51.360;12.362;2022-12-05T17:53:55;20.70;;;15.90;;
11588;SDS011;5850;51.360;12.362;2022-12-05T17:56:33;22.17;;;15.70;;
11588;SDS011;5850;51.360;12.362;2022-12-05T17:59:05;19.43;;;14.70;;
11588;SDS011;5850;51.360;12.362;2022-12-05T18:01:36;21.53;;;15.87;;
11588;SDS011;5850;51.360;12.362;2022-12-05T18:04:06;19.43;;;14.47;;
11588;SDS011;5850;51.360;12.362;2022-12-05T18:06:34;19.47;;;15.03;;
11588;SDS011;5850;51.360;12.362;2022-12-05T18:09:04;22.70;;;16.20;;
11588;SDS011;5850;51.360;12.362;2022-12-05T18:11:35;20.27;;;15.40;;
11588;SDS011;5850;51.360;12.362;2022-12-05T18:14:09;21.23;;;15.90;;
11588;SDS011;5850;51.360;12.362;2022-12-05T18:16:39;21.00;;;15.07;;
11588;SDS011;5850;51.360;12.362;2022-12-05T18:19:14;18.37;;;14.87;;
11588;SDS011;5850;51.360;12.362;2022-12-05T18:21:42;21.17;;;15.00;;
11588;SDS011;5850;51.360;12.362;2022-12-05T18:24:14;22.27;;;15.63;;
11588;SDS011;5850;51.360;12.362;2022-12-05T18:26:44;21.47;;;15.47;;
11588;SDS011;5850;51.360;12.362;2022-12-05T18:29:13;21.17;;;16.23;;
11588;SDS011;5850;51.360;12.362;2022-12-05T18:31:41;22.13;;;15.33;;
11588;SDS011;5850;51.360;12.362;2022-12-05T18:34:10;21.10;;;15.53;;
11588;SDS011;5850;51.360;12.362;2022-12-05T18:36:39;22.40;;;15.50;;
11588;SDS011;5850;51.360;12.362;2022-12-05T18:39:11;20.87;;;15.00;;
11588;SDS011;5850;51.360;12.362;2022-12-05T18:44:15;19.80;;;15.00;;